createdAt,value
2019-03-15T00:02:04.200Z,8.40
2019-03-15T00:04:55.312Z,8.40
2019-03-15T00:07:39.395Z,8.40
2019-03-15T00:10:30.421Z,8.40
2019-03-15T00:13:14.105Z,8.40
2019-03-15T00:16:05.356Z,8.30
2019-03-15T00:18:48.798Z,8.40
2019-03-15T00:21:20.703Z,8.40
2019-03-15T00:24:04.519Z,8.40
2019-03-15T00:26:55.900Z,8.50
2019-03-15T00:29:40.151Z,8.50
2019-03-15T00:32:31.600Z,8.40
2019-03-15T00:35:15.516Z,8.40
2019-03-15T00:37:47.485Z,8.40
2019-03-15T00:40:32.371Z,8.30
2019-03-15T00:43:23.619Z,8.30
2019-03-15T00:45:55.612Z,8.30
2019-03-15T00:48:46.748Z,8.30
2019-03-15T00:51:18.693Z,8.30
2019-03-15T00:54:09.845Z,8.20
2019-03-15T00:56:54.430Z,8.30
2019-03-15T00:59:45.926Z,8.20
2019-03-15T01:02:29.949Z,8.20
2019-03-15T01:05:21.018Z,8.10
2019-03-15T01:08:05.152Z,8.00
2019-03-15T01:10:56.314Z,8.00
2019-03-15T01:13:40.559Z,7.90
2019-03-15T01:16:31.720Z,7.90
2019-03-15T01:19:15.426Z,7.90
2019-03-15T01:21:59.152Z,8.00
2019-03-15T01:24:50.264Z,8.00
2019-03-15T01:27:22.515Z,8.00
2019-03-15T01:30:13.687Z,8.00
2019-03-15T01:32:57.006Z,8.00
2019-03-15T01:35:48.243Z,8.00
2019-03-15T01:38:31.816Z,7.90
2019-03-15T01:41:22.990Z,7.90
2019-03-15T01:44:06.865Z,7.90
2019-03-15T01:46:51.158Z,7.90
2019-03-15T01:49:35.009Z,7.90
2019-03-15T01:52:18.944Z,7.90
2019-03-15T01:55:10.164Z,8.00
2019-03-15T01:57:52.214Z,8.00
2019-03-15T02:00:43.720Z,7.90
2019-03-15T02:03:27.776Z,8.00
2019-03-15T02:06:11.772Z,8.00
2019-03-15T02:12:26.632Z,7.90
2019-03-15T02:15:18.572Z,8.00
2019-03-15T02:18:23.148Z,8.00
2019-03-15T02:21:14.416Z,8.00
2019-03-15T02:23:56.916Z,8.10
2019-03-15T02:26:48.546Z,8.10
2019-03-15T02:29:38.772Z,8.20
2019-03-15T02:32:29.808Z,8.20
2019-03-15T02:35:12.070Z,8.20
2019-03-15T02:37:55.616Z,8.30
2019-03-15T02:40:40.209Z,8.30
2019-03-15T02:43:24.009Z,8.40
2019-03-15T02:46:15.197Z,8.40
2019-03-15T02:48:59.120Z,8.40
2019-03-15T02:51:44.382Z,8.40
2019-03-15T02:54:35.497Z,8.50
2019-03-15T02:57:19.558Z,8.50
2019-03-15T02:59:51.531Z,8.50
2019-03-15T03:02:36.208Z,8.60
2019-03-15T03:05:08.881Z,8.60
2019-03-15T03:07:55.021Z,8.50
2019-03-15T03:10:46.143Z,8.50
2019-03-15T03:13:29.823Z,8.50
2019-03-15T03:16:20.914Z,8.60
2019-03-15T03:19:04.982Z,8.50
2019-03-15T03:21:48.662Z,8.50
2019-03-15T03:24:32.363Z,8.50
2019-03-15T03:27:23.584Z,8.40
2019-03-15T03:33:14.686Z,8.10
2019-03-15T03:35:47.778Z,8.10
2019-03-15T03:38:19.842Z,8.10
2019-03-15T03:40:51.861Z,8.10
2019-03-15T03:43:23.936Z,8.10
2019-03-15T03:45:55.945Z,8.00
2019-03-15T03:48:27.995Z,8.00
2019-03-15T03:51:00.355Z,7.90
2019-03-15T03:53:32.454Z,7.90
2019-03-15T03:56:04.790Z,7.90
2019-03-15T03:58:36.921Z,7.90
2019-03-15T04:01:08.963Z,7.90
2019-03-15T04:03:41.082Z,7.80
2019-03-15T04:06:13.372Z,7.90
2019-03-15T04:08:45.324Z,7.90
2019-03-15T04:11:17.639Z,7.90
2019-03-15T04:13:49.654Z,8.00
2019-03-15T04:16:21.683Z,8.00
2019-03-15T04:18:53.626Z,8.10
2019-03-15T04:21:25.615Z,8.10
2019-03-15T04:23:57.722Z,8.10
2019-03-15T04:26:29.714Z,8.10
2019-03-15T04:29:01.635Z,8.20
2019-03-15T04:31:33.575Z,8.20
2019-03-15T04:34:05.626Z,8.20
2019-03-15T04:36:37.563Z,8.20
2019-03-15T04:39:09.609Z,8.20
2019-03-15T04:41:41.412Z,8.30
2019-03-15T04:44:13.382Z,8.30
2019-03-15T04:46:45.350Z,8.30
2019-03-15T04:49:18.327Z,8.30
2019-03-15T04:51:50.309Z,8.40
2019-03-15T04:54:22.415Z,8.40
2019-03-15T04:56:54.541Z,8.40
2019-03-15T04:59:26.507Z,8.40
2019-03-15T05:01:58.542Z,8.40
2019-03-15T05:04:30.747Z,8.50
2019-03-15T05:07:04.779Z,8.50
2019-03-15T05:09:36.708Z,8.50
2019-03-15T05:12:08.770Z,8.50
2019-03-15T05:14:40.821Z,8.50
2019-03-15T05:17:12.924Z,8.50
2019-03-15T05:19:44.993Z,8.50
2019-03-15T05:22:17.020Z,8.50
2019-03-15T05:24:48.938Z,8.50
2019-03-15T05:27:21.182Z,8.50
2019-03-15T05:29:53.016Z,8.50
2019-03-15T05:32:25.006Z,8.50
2019-03-15T05:34:57.050Z,8.50
2019-03-15T05:37:29.308Z,8.50
2019-03-15T05:40:01.370Z,8.50
2019-03-15T05:42:33.499Z,8.60
2019-03-15T05:45:06.304Z,8.60
2019-03-15T05:47:38.275Z,8.60
2019-03-15T05:50:11.703Z,8.60
2019-03-15T05:52:44.155Z,8.60
2019-03-15T05:55:16.098Z,8.60
2019-03-15T05:57:48.125Z,8.60
2019-03-15T06:00:20.108Z,8.60
2019-03-15T06:02:52.078Z,8.60
2019-03-15T06:05:26.219Z,8.70
2019-03-15T06:07:57.954Z,8.60
2019-03-15T06:10:29.747Z,8.60
2019-03-15T06:13:01.664Z,8.70
2019-03-15T06:15:33.509Z,8.70
2019-03-15T06:18:06.933Z,8.70
2019-03-15T06:20:39.084Z,8.70
2019-03-15T06:23:11.057Z,8.70
2019-03-15T06:25:43.230Z,8.70
2019-03-15T06:28:15.117Z,8.70
2019-03-15T06:30:47.536Z,8.70
2019-03-15T06:33:19.522Z,8.70
2019-03-15T06:35:51.451Z,8.70
2019-03-15T06:38:23.753Z,8.70
2019-03-15T06:40:56.010Z,8.70
2019-03-15T06:43:27.992Z,8.70
2019-03-15T06:45:59.837Z,8.70
2019-03-15T06:48:31.755Z,8.60
2019-03-15T06:51:03.798Z,8.60
2019-03-15T06:53:35.840Z,8.60
2019-03-15T06:56:08.833Z,8.60
2019-03-15T06:58:40.777Z,8.50
2019-03-15T07:01:12.642Z,8.50
2019-03-15T07:03:47.623Z,8.50
2019-03-15T07:06:19.709Z,8.60
2019-03-15T07:08:58.660Z,8.60
2019-03-15T07:11:34.122Z,8.60
2019-03-15T07:14:06.092Z,8.60
2019-03-15T07:16:39.157Z,8.60
2019-03-15T07:19:25.238Z,8.60
2019-03-15T07:21:50.234Z,8.60
2019-03-15T07:24:25.397Z,8.70
2019-03-15T07:26:56.079Z,8.70
2019-03-15T07:29:28.952Z,8.70
2019-03-15T07:32:01.290Z,8.70
2019-03-15T07:34:36.517Z,8.70
2019-03-15T07:37:10.787Z,8.70
2019-03-15T07:40:19.983Z,8.70
2019-03-15T07:43:05.300Z,8.60
2019-03-15T07:45:47.761Z,8.70
2019-03-15T07:48:26.723Z,8.70
2019-03-15T07:51:12.833Z,8.80
2019-03-15T07:53:50.240Z,8.80
2019-03-15T07:56:32.072Z,8.80
2019-03-15T07:59:12.587Z,8.80
2019-03-15T08:02:05.632Z,8.80
2019-03-15T08:04:57.999Z,8.70
2019-03-15T08:07:36.550Z,8.70
2019-03-15T08:10:14.107Z,8.80
2019-03-15T08:12:50.162Z,8.90
2019-03-15T08:15:29.091Z,8.90
2019-03-15T08:18:04.922Z,8.80
2019-03-15T08:20:47.128Z,8.80
2019-03-15T08:23:52.026Z,8.90
2019-03-15T08:26:30.088Z,8.90
2019-03-15T08:29:10.978Z,8.80
2019-03-15T08:31:43.110Z,8.90
2019-03-15T08:34:15.008Z,9.00
2019-03-15T08:36:47.112Z,9.00
2019-03-15T08:39:19.177Z,9.10
2019-03-15T08:41:51.024Z,9.10
2019-03-15T08:44:23.160Z,9.10
2019-03-15T08:46:55.117Z,9.10
2019-03-15T08:49:27.127Z,9.10
2019-03-15T08:52:03.709Z,9.10
2019-03-15T08:54:32.836Z,9.10
2019-03-15T08:57:06.337Z,9.10
2019-03-15T08:59:38.394Z,9.20
2019-03-15T09:02:10.306Z,9.10
2019-03-15T09:04:42.384Z,9.10
2019-03-15T09:07:14.274Z,9.00
2019-03-15T09:09:46.310Z,9.00
2019-03-15T09:12:18.496Z,9.00
2019-03-15T09:14:50.554Z,9.10
2019-03-15T09:17:22.364Z,9.20
2019-03-15T09:19:57.233Z,9.10
2019-03-15T09:22:29.552Z,9.20
2019-03-15T09:25:01.626Z,9.20
2019-03-15T09:27:33.727Z,9.20
2019-03-15T09:30:06.431Z,9.30
2019-03-15T09:32:39.733Z,9.20
2019-03-15T09:35:12.028Z,9.30
2019-03-15T09:37:46.942Z,9.30
2019-03-15T09:49:10.579Z,9.40
2019-03-15T09:52:20.064Z,9.50
2019-03-15T10:07:20.573Z,10.00
2019-03-15T10:10:51.409Z,10.00
2019-03-15T10:13:23.800Z,10.00
2019-03-15T10:21:46.510Z,10.20
2019-03-15T10:24:31.994Z,10.10
2019-03-15T10:28:33.540Z,10.20
2019-03-15T10:31:37.314Z,10.20
2019-03-15T10:34:23.280Z,10.30
2019-03-15T10:49:53.512Z,10.50
2019-03-15T11:13:07.239Z,11.10
2019-03-15T11:15:47.072Z,11.20
2019-03-15T11:22:54.471Z,11.30
2019-03-15T11:25:39.162Z,11.40
2019-03-15T11:28:11.573Z,11.40
2019-03-15T11:30:43.875Z,11.50
2019-03-15T11:33:17.237Z,11.50
2019-03-15T11:35:49.988Z,11.60
2019-03-15T11:38:22.322Z,11.60
2019-03-15T11:40:54.711Z,11.60
2019-03-15T11:43:27.176Z,11.60
2019-03-15T11:45:59.517Z,11.70
2019-03-15T11:48:31.917Z,11.70
2019-03-15T11:51:04.496Z,11.70
2019-03-15T11:53:40.255Z,11.70
2019-03-15T11:56:26.223Z,11.80
2019-03-15T11:58:47.764Z,11.80
2019-03-15T12:01:20.163Z,11.90
2019-03-15T12:04:00.880Z,11.90
2019-03-15T12:06:33.377Z,12.00
2019-03-15T12:09:08.022Z,12.10
2019-03-15T12:11:41.523Z,12.20
2019-03-15T12:14:13.807Z,12.10
2019-03-15T12:16:46.230Z,12.20
2019-03-15T12:19:18.583Z,12.20
2019-03-15T12:21:51.261Z,12.20
2019-03-15T12:24:23.682Z,12.20
2019-03-15T12:26:56.040Z,12.20
2019-03-15T12:29:29.489Z,12.30
2019-03-15T12:32:01.883Z,12.30
2019-03-15T12:34:34.404Z,12.20
2019-03-15T12:37:06.787Z,12.20
2019-03-15T12:39:39.200Z,12.20
2019-03-15T12:42:11.297Z,12.30
2019-03-15T12:44:43.516Z,12.30
2019-03-15T12:47:15.875Z,12.30
2019-03-15T12:49:49.572Z,12.20
2019-03-15T12:52:20.898Z,12.30
2019-03-15T12:54:52.750Z,12.30
2019-03-15T12:57:24.990Z,12.40
2019-03-15T12:59:57.457Z,12.40
2019-03-15T13:02:29.971Z,12.40
2019-03-15T13:05:02.406Z,12.50
2019-03-15T13:07:34.618Z,12.40
2019-03-15T13:10:10.310Z,12.40
2019-03-15T13:12:44.023Z,12.50
2019-03-15T13:15:16.316Z,12.40
2019-03-15T13:17:48.548Z,12.50
2019-03-15T13:20:20.813Z,12.50
2019-03-15T13:22:53.097Z,12.50
2019-03-15T13:25:26.365Z,12.50
2019-03-15T13:27:59.446Z,12.50
2019-03-15T13:30:31.727Z,12.60
2019-03-15T13:33:04.292Z,12.60
2019-03-15T13:35:36.412Z,12.50
2019-03-15T13:38:08.412Z,12.60
2019-03-15T13:40:40.287Z,12.60
2019-03-15T13:43:12.312Z,12.60
2019-03-15T13:45:44.420Z,12.60
2019-03-15T13:48:16.564Z,12.70
2019-03-15T13:50:48.713Z,12.70
2019-03-15T13:53:20.680Z,12.70
2019-03-15T13:55:53.904Z,12.70
2019-03-15T13:58:26.990Z,12.70
2019-03-15T14:00:59.161Z,12.80
2019-03-15T14:03:36.443Z,12.80
2019-03-15T14:06:08.944Z,12.80
2019-03-15T14:08:42.065Z,12.80
2019-03-15T14:11:14.316Z,12.90
2019-03-15T14:13:46.453Z,12.90
2019-03-15T14:16:21.470Z,12.90
2019-03-15T14:18:53.643Z,13.00
2019-03-15T14:21:25.638Z,12.90
2019-03-15T14:23:59.203Z,12.90
2019-03-15T14:26:31.277Z,12.80
2019-03-15T14:29:03.158Z,12.80
2019-03-15T14:31:35.177Z,12.80
2019-03-15T14:34:07.142Z,12.80
2019-03-15T14:36:39.257Z,12.80
2019-03-15T14:39:11.327Z,12.80
2019-03-15T14:41:43.198Z,12.80
2019-03-15T14:44:18.244Z,12.90
2019-03-15T14:46:49.361Z,12.80
2019-03-15T14:49:21.430Z,12.80
2019-03-15T14:51:53.428Z,12.80
2019-03-15T14:54:25.895Z,12.80
2019-03-15T14:56:58.040Z,12.80
2019-03-15T14:59:32.343Z,12.80
2019-03-15T15:02:04.394Z,12.80
2019-03-15T15:04:36.321Z,12.80
2019-03-15T15:07:08.363Z,12.80
2019-03-15T15:09:40.236Z,12.80
2019-03-15T15:12:12.514Z,12.90
2019-03-15T15:14:45.125Z,12.80
2019-03-15T15:17:17.492Z,12.80
2019-03-15T15:19:50.127Z,12.80
2019-03-15T15:22:22.668Z,12.80
2019-03-15T15:24:55.012Z,12.80
2019-03-15T15:27:26.958Z,12.90
2019-03-15T15:29:59.237Z,12.90
2019-03-15T15:32:31.439Z,12.90
2019-03-15T15:35:03.397Z,13.00
2019-03-15T15:37:35.403Z,13.00
2019-03-15T15:40:09.278Z,13.00
2019-03-15T15:42:41.720Z,12.90
2019-03-15T15:45:15.869Z,13.00
2019-03-15T15:47:47.849Z,13.00
2019-03-15T15:50:19.958Z,12.90
2019-03-15T15:52:52.034Z,12.90
2019-03-15T15:55:25.434Z,12.90
2019-03-15T15:57:57.516Z,12.90
2019-03-15T16:00:29.510Z,12.90
2019-03-15T16:03:01.718Z,12.90
2019-03-15T16:05:33.673Z,12.80
2019-03-15T16:08:05.727Z,12.80
2019-03-15T16:10:38.220Z,12.90
2019-03-15T16:13:17.165Z,12.90
2019-03-15T16:15:48.586Z,13.00
2019-03-15T16:18:33.327Z,13.00
2019-03-15T16:21:00.198Z,12.90
2019-03-15T16:23:37.697Z,13.00
2019-03-15T16:26:11.282Z,12.90
2019-03-15T16:28:50.321Z,12.90
2019-03-15T16:31:24.222Z,12.80
2019-03-15T16:34:09.287Z,12.80
2019-03-15T16:37:12.839Z,12.80
2019-03-15T16:39:31.655Z,12.90
2019-03-15T16:42:13.383Z,12.90
2019-03-15T16:44:48.259Z,12.90
2019-03-15T16:47:24.678Z,12.80
2019-03-15T16:49:58.599Z,12.80
2019-03-15T16:52:30.800Z,12.80
2019-03-15T16:55:02.945Z,12.80
2019-03-15T16:57:34.953Z,12.90
2019-03-15T17:00:08.134Z,12.80
2019-03-15T17:02:40.260Z,12.80
2019-03-15T17:05:12.377Z,12.80
2019-03-15T17:07:44.733Z,12.80
2019-03-15T17:10:16.823Z,12.80
2019-03-15T17:12:50.633Z,12.80
2019-03-15T17:15:22.675Z,12.80
2019-03-15T17:17:57.250Z,12.80
2019-03-15T17:20:29.335Z,12.80
2019-03-15T17:23:01.365Z,12.90
2019-03-15T17:25:33.237Z,12.90
2019-03-15T17:28:05.162Z,12.90
2019-03-15T17:30:37.296Z,12.90
2019-03-15T17:33:09.599Z,12.90
2019-03-15T17:35:41.533Z,12.90
2019-03-15T17:38:13.393Z,12.90
2019-03-15T17:40:45.438Z,12.90
2019-03-15T17:43:17.347Z,13.00
2019-03-15T17:45:49.468Z,12.90
2019-03-15T17:48:22.510Z,12.90
2019-03-15T17:50:55.934Z,12.90
2019-03-15T17:53:28.619Z,13.00
2019-03-15T17:56:05.106Z,12.90
2019-03-15T17:58:41.123Z,13.00
2019-03-15T18:01:15.229Z,12.90
2019-03-15T18:03:50.740Z,12.90
2019-03-15T18:06:25.079Z,12.90
2019-03-15T18:08:58.766Z,12.90
2019-03-15T18:11:32.738Z,12.90
2019-03-15T18:14:07.100Z,12.90
2019-03-15T18:16:40.236Z,12.90
2019-03-15T18:19:12.235Z,12.90
2019-03-15T18:21:44.158Z,13.00
2019-03-15T18:24:16.129Z,13.00
2019-03-15T18:26:48.847Z,13.00
2019-03-15T18:29:26.639Z,13.00
2019-03-15T18:31:56.935Z,13.00
2019-03-15T18:34:30.942Z,12.90
2019-03-15T18:37:04.421Z,12.90
2019-03-15T18:39:38.578Z,12.90
2019-03-15T18:42:11.741Z,12.90
2019-03-15T18:44:45.083Z,12.90
2019-03-15T18:47:18.376Z,12.80
2019-03-15T18:49:51.204Z,12.80
2019-03-15T18:52:26.196Z,12.80
2019-03-15T18:55:00.422Z,12.80
2019-03-15T18:57:33.694Z,12.80
2019-03-15T19:00:08.813Z,12.80
2019-03-15T19:02:42.288Z,12.80
2019-03-15T19:05:18.470Z,12.80
2019-03-15T19:07:56.083Z,12.80
2019-03-15T19:10:32.324Z,12.80
2019-03-15T19:13:25.269Z,12.80
2019-03-15T19:15:57.968Z,12.90
2019-03-15T19:18:30.844Z,12.90
2019-03-15T19:21:07.934Z,12.90
2019-03-15T19:24:50.684Z,12.90
2019-03-15T19:27:33.602Z,12.80
2019-03-15T19:31:04.186Z,12.80
2019-03-15T19:33:55.659Z,12.80
2019-03-15T19:36:51.648Z,12.80
2019-03-15T19:45:26.516Z,12.80
2019-03-15T19:47:11.212Z,12.80
2019-03-15T19:50:56.026Z,12.80
2019-03-15T19:54:42.190Z,12.80
2019-03-15T20:01:32.138Z,12.80
2019-03-15T20:05:38.189Z,12.70
2019-03-15T20:12:12.790Z,12.80
2019-03-15T20:15:53.278Z,12.70
2019-03-15T20:18:45.098Z,12.70
2019-03-15T20:22:01.125Z,12.60
2019-03-15T20:25:16.223Z,12.70
2019-03-15T20:28:51.839Z,12.60
2019-03-15T20:38:07.597Z,12.60
2019-03-15T20:44:34.341Z,12.60
2019-03-15T20:51:21.210Z,12.60
2019-03-15T20:54:01.858Z,12.60
2019-03-15T20:57:05.609Z,12.50
2019-03-15T21:00:06.278Z,12.50
2019-03-15T21:06:53.268Z,12.60
2019-03-15T21:09:52.358Z,12.60
2019-03-15T21:12:45.291Z,12.60
2019-03-15T21:15:57.528Z,12.60
2019-03-15T21:19:16.268Z,12.50
2019-03-15T21:29:56.348Z,12.50
2019-03-15T21:34:10.474Z,12.50
2019-03-15T21:37:19.560Z,12.50
2019-03-15T21:41:04.304Z,12.60
2019-03-15T21:48:57.377Z,12.50
2019-03-15T21:52:23.996Z,12.50
2019-03-15T21:55:21.990Z,12.50
2019-03-15T21:58:34.433Z,12.50
2019-03-15T22:02:53.320Z,12.40
2019-03-15T22:05:46.984Z,12.40
2019-03-15T22:08:47.018Z,12.50
2019-03-15T22:11:50.591Z,12.50
2019-03-15T22:15:07.020Z,12.50
2019-03-15T22:18:53.444Z,12.50
2019-03-15T22:25:39.398Z,12.50
2019-03-15T22:29:24.574Z,12.50
2019-03-15T22:31:46.938Z,12.50
2019-03-15T22:35:14.499Z,12.50
2019-03-15T22:38:08.866Z,12.50
2019-03-15T22:41:18.262Z,12.60
2019-03-15T22:44:47.161Z,12.60
2019-03-15T22:47:57.288Z,12.60
2019-03-15T22:51:22.447Z,12.40
2019-03-15T22:54:53.854Z,12.50
2019-03-15T22:58:03.974Z,12.50
2019-03-15T23:00:55.912Z,12.50
2019-03-15T23:04:01.438Z,12.60
2019-03-15T23:07:04.232Z,12.60
2019-03-15T23:09:58.596Z,12.60
2019-03-15T23:13:13.770Z,12.50
2019-03-15T23:16:28.599Z,12.50
2019-03-15T23:19:40.032Z,12.40
2019-03-15T23:22:55.142Z,12.40
2019-03-15T23:26:17.941Z,12.40
2019-03-15T23:29:31.064Z,12.40
2019-03-15T23:32:27.296Z,12.40
2019-03-15T23:35:53.876Z,12.40
2019-03-15T23:38:46.094Z,12.40
2019-03-15T23:42:16.517Z,12.40
2019-03-15T23:44:50.347Z,12.30
2019-03-15T23:48:03.350Z,12.30
2019-03-15T23:51:15.175Z,12.30
2019-03-15T23:54:38.263Z,12.20
2019-03-15T23:57:25.334Z,12.30
